Time;durP1;ratioP1;P1;durP2;ratioP2;P2;SDS_P1;SDS_P2;PMS_P1;PMS_P2;Temp;Humidity;BMP_temperature;BMP_pressure;BME280_temperature;BME280_humidity;BME280_pressure;Samples;Min_cycle;Max_cycle;Signal;HPM_P1;HPM_P2
2021/05/20 00:01:00;;;;;;;2.45;1.83;;;10.50;87.10;;;;;;4974772;28;20027;-72
2021/05/20 00:03:25;;;;;;;1.90;1.50;;;10.40;87.10;;;;;;4974293;28;20519;-73
2021/05/20 00:05:51;;;;;;;2.33;1.60;;;10.40;87.10;;;;;;4974186;28;20518;-72
2021/05/20 00:08:16;;;;;;;2.33;1.55;;;10.40;87.10;;;;;;4974737;28;20018;-72
2021/05/20 00:10:42;;;;;;;1.83;1.60;;;10.40;87.10;;;;;;4974478;28;20023;-72
2021/05/20 00:13:07;;;;;;;2.45;1.90;;;10.40;87.20;;;;;;4974596;28;20034;-72
2021/05/20 00:15:33;;;;;;;1.92;1.58;;;10.30;87.20;;;;;;4974598;28;20070;-72
2021/05/20 00:17:58;;;;;;;2.13;1.75;;;10.30;87.30;;;;;;4974079;28;20489;-72
2021/05/20 00:20:24;;;;;;;2.92;2.38;;;10.30;87.40;;;;;;4974534;28;20023;-72
2021/05/20 00:22:49;;;;;;;2.60;2.15;;;10.30;87.30;;;;;;4974440;28;20498;-72
2021/05/20 00:25:15;;;;;;;2.78;2.10;;;10.30;87.30;;;;;;4974487;28;20022;-72
2021/05/20 00:27:41;;;;;;;2.55;2.05;;;10.30;87.50;;;;;;4974535;28;20019;-72
2021/05/20 00:30:07;;;;;;;2.95;2.45;;;10.20;87.40;;;;;;4974410;28;20027;-72
2021/05/20 00:32:33;;;;;;;3.25;2.40;;;10.30;87.50;;;;;;4973806;28;20015;-72
2021/05/20 00:34:58;;;;;;;2.83;2.15;;;10.20;87.40;;;;;;4974337;28;20468;-73
2021/05/20 00:37:24;;;;;;;4.20;2.60;;;10.20;87.40;;;;;;4974415;28;20106;-72
2021/05/20 00:39:49;;;;;;;2.92;2.20;;;10.20;87.40;;;;;;4973732;28;20038;-71
2021/05/20 00:42:15;;;;;;;3.28;2.88;;;10.20;87.50;;;;;;4974394;28;20046;-72
2021/05/20 00:44:55;;;;;;;3.97;2.30;;;10.20;87.60;;;;;;4974293;28;20031;-73
2021/05/20 00:47:32;;;;;;;3.70;2.65;;;10.10;87.50;;;;;;4973902;28;20030;-72
2021/05/20 00:50:03;;;;;;;3.50;2.63;;;10.10;88.20;;;;;;4974108;28;20030;-72
2021/05/20 00:52:28;;;;;;;3.30;2.58;;;10.10;87.70;;;;;;4974188;28;20062;-72
2021/05/20 00:54:55;;;;;;;4.55;3.00;;;10.00;87.70;;;;;;4974230;28;20027;-72
2021/05/20 00:57:22;;;;;;;3.90;2.45;;;10.10;87.80;;;;;;4974387;28;20449;-72
2021/05/20 00:59:49;;;;;;;5.38;3.75;;;10.00;87.80;;;;;;4972710;28;20043;-72
2021/05/20 01:02:14;;;;;;;5.43;3.53;;;10.00;87.80;;;;;;4972405;28;20118;-72
2021/05/20 01:04:40;;;;;;;4.28;3.17;;;10.00;87.90;;;;;;4974138;28;20465;-72
2021/05/20 01:07:06;;;;;;;4.88;3.45;;;9.90;88.00;;;;;;4974020;28;20030;-72
2021/05/20 01:09:35;;;;;;;4.60;3.05;;;9.90;88.00;;;;;;5033100;23;20111;-75
2021/05/20 01:12:01;;;;;;;4.85;3.33;;;9.90;88.00;;;;;;5032783;28;20393;-75
2021/05/20 01:14:26;;;;;;;5.22;3.42;;;9.90;88.10;;;;;;5032757;28;20045;-76
2021/05/20 01:16:52;;;;;;;6.07;3.85;;;9.90;88.10;;;;;;5033155;28;20053;-76
2021/05/20 01:19:18;;;;;;;5.20;3.55;;;9.80;88.00;;;;;;5036410;28;20116;-76
2021/05/20 01:21:44;;;;;;;5.78;3.75;;;9.80;88.10;;;;;;5036559;28;20024;-75
2021/05/20 01:24:11;;;;;;;5.45;4.82;;;9.80;88.00;;;;;;5018809;28;20377;-76
2021/05/20 01:26:40;;;;;;;4.70;3.30;;;9.80;88.10;;;;;;5036405;28;20175;-76
2021/05/20 01:29:07;;;;;;;4.40;3.20;;;9.80;88.20;;;;;;5018473;28;20384;-75
2021/05/20 01:31:33;;;;;;;5.88;4.05;;;9.80;88.20;;;;;;5035917;28;20284;-75
2021/05/20 01:33:59;;;;;;;5.45;3.70;;;9.80;88.30;;;;;;5036245;28;20024;-75
2021/05/20 01:36:28;;;;;;;4.65;3.15;;;9.80;88.30;;;;;;5036172;28;20025;-75
2021/05/20 01:38:57;;;;;;;;;;;9.80;88.30;;;;;;5036508;28;20136;-76
2021/05/20 01:41:23;;;;;;;5.20;3.08;;;9.70;88.20;;;;;;5036137;28;19911;-76
2021/05/20 01:43:52;;;;;;;4.03;2.97;;;9.60;88.50;;;;;;5018000;28;20381;-77
2021/05/20 01:46:17;;;;;;;6.45;4.40;;;9.70;88.50;;;;;;5036194;28;20382;-75
2021/05/20 01:48:45;;;;;;;5.00;3.85;;;9.70;88.40;;;;;;5035900;28;20025;-75
2021/05/20 01:51:15;;;;;;;6.95;4.90;;;9.70;88.60;;;;;;5035959;28;20025;-75
2021/05/20 01:53:44;;;;;;;7.93;4.05;;;9.70;88.60;;;;;;5036097;28;20013;-74
2021/05/20 01:56:10;;;;;;;7.15;3.70;;;9.70;88.70;;;;;;5035907;28;20049;-75
2021/05/20 01:58:36;;;;;;;4.43;3.17;;;9.70;88.70;;;;;;5017529;28;20386;-76
2021/05/20 02:01:03;;;;;;;7.13;4.88;;;9.70;88.70;;;;;;5035790;28;20079;-75
2021/05/20 02:03:29;;;;;;;6.50;3.92;;;9.70;88.90;;;;;;5036137;28;20033;-76
2021/05/20 02:05:58;;;;;;;5.57;3.85;;;9.80;88.80;;;;;;5035719;28;20068;-75
2021/05/20 02:08:27;;;;;;;8.48;5.05;;;9.70;88.80;;;;;;5035537;28;20088;-75
2021/05/20 02:10:52;;;;;;;6.05;4.15;;;9.70;88.90;;;;;;5035623;28;20091;-76
2021/05/20 02:13:18;;;;;;;7.38;3.72;;;9.70;89.00;;;;;;5017233;28;20490;-76
2021/05/20 02:15:43;;;;;;;5.88;4.20;;;9.70;89.00;;;;;;5035380;28;20024;-76
2021/05/20 02:18:09;;;;;;;5.18;4.15;;;9.70;88.90;;;;;;5017567;28;20037;-76
2021/05/20 02:20:35;;;;;;;5.38;3.30;;;9.70;89.00;;;;;;5035474;28;20054;-76
2021/05/20 02:23:01;;;;;;;6.03;3.85;;;9.70;88.90;;;;;;5035440;28;20116;-75
2021/05/20 02:25:27;;;;;;;5.47;3.63;;;9.70;88.90;;;;;;5035186;28;20030;-75
2021/05/20 02:27:53;;;;;;;5.47;3.75;;;9.70;88.90;;;;;;5034410;28;20025;-76
2021/05/20 02:30:19;;;;;;;5.22;3.50;;;9.70;88.90;;;;;;5035217;28;20026;-77
2021/05/20 02:32:44;;;;;;;5.30;4.45;;;9.70;88.90;;;;;;5035127;28;20021;-76
2021/05/20 02:35:11;;;;;;;4.28;2.85;;;9.70;89.00;;;;;;5035157;28;20377;-75
2021/05/20 02:37:37;;;;;;;6.15;3.28;;;9.70;89.00;;;;;;5035020;28;20029;-76
2021/05/20 02:40:04;;;;;;;5.53;3.42;;;9.70;88.90;;;;;;5035078;28;20041;-76
2021/05/20 02:42:30;;;;;;;8.48;3.80;;;9.70;88.90;;;;;;5016731;28;20029;-76
2021/05/20 02:44:56;;;;;;;5.20;4.55;;;9.70;88.90;;;;;;5034699;28;20030;-75
2021/05/20 02:47:21;;;;;;;8.88;4.18;;;9.60;89.00;;;;;;5034871;28;20028;-74
2021/05/20 02:49:47;;;;;;;6.70;4.78;;;9.60;89.20;;;;;;5034907;28;20033;-75
2021/05/20 02:52:12;;;;;;;6.57;4.15;;;9.60;89.20;;;;;;5034790;28;20032;-75
2021/05/20 02:54:38;;;;;;;3.83;2.72;;;9.60;89.20;;;;;;5034690;28;20026;-75
2021/05/20 02:57:04;;;;;;;5.18;2.72;;;9.50;89.30;;;;;;5016396;28;20032;-76
2021/05/20 02:59:30;;;;;;;7.18;3.15;;;9.50;89.40;;;;;;5034586;28;20041;-75
2021/05/20 03:02:04;;;;;;;3.85;2.42;;;9.50;89.50;;;;;;5034698;28;20009;-74
2021/05/20 03:04:30;;;;;;;3.60;2.40;;;9.60;89.40;;;;;;5034604;28;20026;-75
2021/05/20 03:06:56;;;;;;;3.72;2.53;;;9.60;89.10;;;;;;5034449;28;20531;-75
2021/05/20 03:09:22;;;;;;;5.43;2.60;;;9.70;89.00;;;;;;5034052;28;20120;-75
2021/05/20 03:11:47;;;;;;;3.65;2.30;;;9.60;89.00;;;;;;5034037;28;20390;-76
2021/05/20 03:14:13;;;;;;;4.72;2.60;;;9.60;89.10;;;;;;5034280;28;20022;-76
2021/05/20 03:16:38;;;;;;;3.45;2.08;;;9.60;89.00;;;;;;5034284;28;20470;-76
2021/05/20 03:19:04;;;;;;;3.63;2.17;;;9.60;89.30;;;;;;5034092;28;20033;-76
2021/05/20 03:21:29;;;;;;;3.60;2.60;;;9.60;89.20;;;;;;5032985;28;20552;-76
2021/05/20 03:23:55;;;;;;;3.15;2.30;;;9.60;89.20;;;;;;5034221;28;20096;-74
2021/05/20 03:26:21;;;;;;;4.18;2.25;;;9.60;89.30;;;;;;5033609;28;20025;-76
2021/05/20 03:28:47;;;;;;;4.70;3.45;;;9.50;89.30;;;;;;5032806;28;20021;-75
2021/05/20 03:31:12;;;;;;;2.65;1.67;;;9.50;89.40;;;;;;5034018;28;20104;-76
2021/05/20 03:33:41;;;;;;;3.58;2.25;;;9.60;89.20;;;;;;5033918;28;20381;-75
2021/05/20 03:36:06;;;;;;;3.30;2.35;;;9.60;89.10;;;;;;5016198;28;20544;-76
2021/05/20 03:38:32;;;;;;;4.47;2.88;;;9.70;89.10;;;;;;5033862;28;20037;-76
2021/05/20 03:41:00;;;;;;;4.82;3.05;;;9.70;88.90;;;;;;5032812;28;20021;-75
2021/05/20 03:43:26;;;;;;;4.38;2.78;;;9.70;88.70;;;;;;5033971;28;20094;-76
2021/05/20 03:45:51;;;;;;;4.30;2.70;;;9.70;88.70;;;;;;5033833;28;20481;-75
2021/05/20 03:48:17;;;;;;;3.95;3.03;;;9.70;88.70;;;;;;5033520;28;20071;-75
2021/05/20 03:50:42;;;;;;;4.03;2.50;;;9.60;88.70;;;;;;5033628;28;20036;-76
2021/05/20 03:53:08;;;;;;;3.90;2.78;;;9.50;89.00;;;;;;5033709;28;20394;-76
2021/05/20 03:55:33;;;;;;;4.38;2.70;;;9.40;89.50;;;;;;5033111;28;20057;-74
2021/05/20 03:57:59;;;;;;;2.97;2.00;;;9.30;89.60;;;;;;5033340;28;20025;-75
2021/05/20 04:00:24;;;;;;;4.88;3.47;;;9.40;89.60;;;;;;5033534;28;20029;-75
2021/05/20 04:02:50;;;;;;;4.75;3.40;;;9.40;89.30;;;;;;5033556;28;20457;-76
2021/05/20 04:05:16;;;;;;;3.38;2.63;;;9.40;89.10;;;;;;5033486;28;20017;-75
2021/05/20 04:07:41;;;;;;;4.82;2.75;;;9.40;89.10;;;;;;5033734;28;20079;-76
2021/05/20 04:10:08;;;;;;;3.65;2.63;;;9.40;89.20;;;;;;5030759;28;20132;-75
2021/05/20 04:12:34;;;;;;;2.45;2.00;;;9.40;89.10;;;;;;5033274;28;20037;-76
2021/05/20 04:14:59;;;;;;;3.42;2.42;;;9.40;89.10;;;;;;5015684;28;20382;-75
2021/05/20 04:17:25;;;;;;;3.28;2.55;;;9.40;89.00;;;;;;5033276;28;20030;-74
2021/05/20 04:19:50;;;;;;;4.40;2.42;;;9.40;89.00;;;;;;5033086;28;20033;-77
2021/05/20 04:22:16;;;;;;;3.33;1.92;;;9.30;89.00;;;;;;5015477;28;20048;-76
2021/05/20 04:24:41;;;;;;;2.65;2.25;;;9.40;89.00;;;;;;5032669;28;20029;-75
2021/05/20 04:27:07;;;;;;;3.30;2.40;;;9.40;88.90;;;;;;5033130;28;20022;-76
2021/05/20 04:29:32;;;;;;;3.10;2.50;;;9.40;88.70;;;;;;5032953;28;20025;-75
2021/05/20 04:31:58;;;;;;;2.70;2.33;;;9.40;88.70;;;;;;5033178;28;20018;-76
2021/05/20 04:34:23;;;;;;;4.18;2.95;;;9.40;88.70;;;;;;5033035;28;20036;-76
2021/05/20 04:36:50;;;;;;;2.85;1.60;;;9.40;88.80;;;;;;5033056;28;20053;-76
2021/05/20 04:39:15;;;;;;;4.95;2.97;;;9.40;88.90;;;;;;5014769;28;20040;-74
2021/05/20 04:41:43;;;;;;;3.90;2.38;;;9.40;88.90;;;;;;5032931;28;20022;-75
2021/05/20 04:44:09;;;;;;;3.40;2.22;;;9.40;89.10;;;;;;5033039;28;20026;-75
2021/05/20 04:46:35;;;;;;;3.42;2.28;;;9.30;89.00;;;;;;5015212;28;20075;-75
2021/05/20 04:49:02;;;;;;;2.47;1.75;;;9.40;89.10;;;;;;5033067;28;20060;-76
2021/05/20 04:51:28;;;;;;;2.15;1.63;;;9.40;89.10;;;;;;5017110;28;20389;-74
2021/05/20 04:53:54;;;;;;;2.88;1.70;;;9.50;88.90;;;;;;5036647;28;20029;-75
2021/05/20 04:56:23;;;;;;;3.13;2.13;;;9.50;88.80;;;;;;5036721;28;20363;-75
2021/05/20 04:58:51;;;;;;;1.98;1.35;;;9.50;88.80;;;;;;5036732;28;20433;-76
2021/05/20 05:01:17;;;;;;;2.38;1.58;;;9.60;88.70;;;;;;5036954;28;20018;-76
2021/05/20 05:03:42;;;;;;;2.63;2.20;;;9.60;88.70;;;;;;5036805;28;20485;-76
2021/05/20 05:06:08;;;;;;;3.13;2.33;;;9.70;88.60;;;;;;5036908;28;20022;-76
2021/05/20 05:08:33;;;;;;;3.30;1.92;;;9.60;88.60;;;;;;5035949;28;20125;-76
2021/05/20 05:10:59;;;;;;;2.05;1.77;;;9.70;88.60;;;;;;5018777;28;20029;-76
2021/05/20 05:13:24;;;;;;;2.42;1.40;;;9.70;88.50;;;;;;5036626;28;20024;-76
2021/05/20 05:15:50;;;;;;;1.83;1.25;;;9.80;88.60;;;;;;5036626;28;20025;-74
2021/05/20 05:18:15;;;;;;;2.92;1.88;;;9.80;88.50;;;;;;5036329;28;20024;-73
2021/05/20 05:20:42;;;;;;;3.00;2.03;;;9.90;88.40;;;;;;5036474;28;20543;-74
2021/05/20 05:23:07;;;;;;;5.88;3.65;;;10.00;88.40;;;;;;5036013;28;20108;-74
2021/05/20 05:25:33;;;;;;;4.45;2.72;;;10.00;88.10;;;;;;5036344;28;20116;-75
2021/05/20 05:27:58;;;;;;;4.30;2.42;;;10.00;88.40;;;;;;5036513;28;20021;-74
2021/05/20 05:30:24;;;;;;;4.18;2.17;;;9.90;88.20;;;;;;5036317;28;20065;-74
2021/05/20 05:32:50;;;;;;;4.47;2.90;;;9.90;88.40;;;;;;5036347;28;20075;-75
2021/05/20 05:35:15;;;;;;;6.68;3.65;;;9.90;88.50;;;;;;5036257;28;20432;-74
2021/05/20 05:37:44;;;;;;;3.78;2.63;;;9.90;88.50;;;;;;5035500;28;20026;-74
2021/05/20 05:40:10;;;;;;;5.80;4.03;;;10.00;88.40;;;;;;5036190;28;20397;-75
2021/05/20 05:42:38;;;;;;;3.55;3.08;;;10.00;88.30;;;;;;5036041;28;20021;-74
2021/05/20 05:45:05;;;;;;;5.53;3.58;;;10.10;88.40;;;;;;5036081;28;20057;-74
2021/05/20 05:47:31;;;;;;;3.97;2.63;;;10.20;88.40;;;;;;5035854;28;20028;-75
2021/05/20 05:50:02;;;;;;;2.95;1.95;;;10.20;88.40;;;;;;5035823;28;20026;-74
2021/05/20 05:52:28;;;;;;;4.07;2.33;;;10.20;88.40;;;;;;5035170;28;20045;-73
2021/05/20 05:54:53;;;;;;;3.42;2.45;;;10.30;88.20;;;;;;5034321;28;20143;-75
2021/05/20 05:57:19;;;;;;;5.75;3.33;;;10.40;88.10;;;;;;5035803;28;20483;-75
2021/05/20 05:59:45;;;;;;;5.25;3.00;;;10.40;88.00;;;;;;5021118;28;20032;-75
2021/05/20 06:02:13;;;;;;;4.68;2.83;;;10.40;88.00;;;;;;5035019;28;20022;-75
2021/05/20 06:04:38;;;;;;;2.75;1.98;;;10.50;88.10;;;;;;5035371;28;20470;-74
2021/05/20 06:07:04;;;;;;;4.30;2.60;;;10.50;87.90;;;;;;5034913;28;20113;-75
2021/05/20 06:09:29;;;;;;;2.60;2.00;;;10.50;88.20;;;;;;5033157;28;20045;-74
2021/05/20 06:11:57;;;;;;;4.82;3.05;;;10.60;88.20;;;;;;5035401;28;20505;-75
2021/05/20 06:14:22;;;;;;;4.20;3.00;;;10.70;88.00;;;;;;5035384;28;20100;-74
2021/05/20 06:16:48;;;;;;;3.40;2.22;;;10.80;87.90;;;;;;5017458;28;20033;-73
2021/05/20 06:19:13;;;;;;;5.93;3.20;;;10.80;87.70;;;;;;5035184;28;20025;-74
2021/05/20 06:21:39;;;;;;;3.83;2.72;;;10.90;87.80;;;;;;5034829;28;20036;-75
2021/05/20 06:24:06;;;;;;;3.75;2.33;;;10.90;87.60;;;;;;5034953;28;20103;-74
2021/05/20 06:26:31;;;;;;;4.20;2.85;;;10.90;87.60;;;;;;5035088;28;20461;-74
2021/05/20 06:28:57;;;;;;;4.75;2.70;;;10.90;87.70;;;;;;5035168;28;20064;-75
2021/05/20 06:31:23;;;;;;;5.85;3.25;;;11.00;87.80;;;;;;5024066;28;20099;-75
2021/05/20 06:33:49;;;;;;;4.82;2.75;;;11.10;87.70;;;;;;5014520;28;20112;-75
2021/05/20 06:36:16;;;;;;;4.60;3.17;;;11.10;87.70;;;;;;5015059;28;20064;-74
2021/05/20 06:38:44;;;;;;;5.68;3.10;;;11.20;87.60;;;;;;5013479;28;20391;-74
2021/05/20 06:41:09;;;;;;;4.60;3.20;;;11.30;87.50;;;;;;5014780;28;20021;-75
2021/05/20 06:43:37;;;;;;;4.13;2.90;;;11.30;87.50;;;;;;5015108;28;20022;-75
2021/05/20 06:46:04;;;;;;;6.10;3.40;;;11.30;87.40;;;;;;5014971;28;20026;-76
2021/05/20 06:48:29;;;;;;;4.50;2.83;;;11.30;87.60;;;;;;5014485;28;20026;-75
2021/05/20 06:50:55;;;;;;;7.32;4.00;;;11.20;87.80;;;;;;5014856;28;20113;-75
2021/05/20 06:53:23;;;;;;;5.55;3.08;;;11.30;87.90;;;;;;5014931;28;20079;-74
2021/05/20 06:55:48;;;;;;;5.10;3.58;;;11.40;87.60;;;;;;5014943;28;20049;-75
2021/05/20 07:00:40;;;;;;;5.60;3.03;;;11.40;87.40;;;;;;5014895;28;20041;-76
2021/05/20 07:03:10;;;;;;;5.38;3.75;;;11.50;87.50;;;;;;5014324;28;20037;-76
2021/05/20 07:05:35;;;;;;;6.35;3.33;;;11.50;87.30;;;;;;5014909;28;20025;-75
2021/05/20 07:08:02;;;;;;;6.00;3.20;;;11.50;87.30;;;;;;5014556;28;20030;-75
2021/05/20 07:10:28;;;;;;;4.70;3.35;;;11.50;87.50;;;;;;5014520;28;20125;-75
2021/05/20 07:12:53;;;;;;;5.80;3.15;;;11.60;87.40;;;;;;5014671;28;20106;-73
2021/05/20 07:15:19;;;;;;;5.03;2.97;;;11.60;87.40;;;;;;5014519;28;20381;-73
2021/05/20 07:17:45;;;;;;;5.72;3.10;;;11.70;87.40;;;;;;5016520;28;20026;-73
2021/05/20 07:20:11;;;;;;;3.60;2.92;;;11.70;87.30;;;;;;5022781;28;20458;-73
2021/05/20 07:22:36;;;;;;;7.93;5.28;;;11.80;87.20;;;;;;5011776;28;20370;-76
2021/05/20 07:25:04;;;;;;;5.60;4.25;;;11.90;86.90;;;;;;5023964;28;20034;-74
2021/05/20 07:27:31;;;;;;;9.98;5.85;;;11.90;87.00;;;;;;5029925;28;20021;-74
2021/05/20 07:29:57;;;;;;;8.65;4.90;;;11.90;86.90;;;;;;5031114;28;20025;-75
2021/05/20 07:32:23;;;;;;;9.10;6.78;;;11.90;86.90;;;;;;5032539;28;20535;-76
2021/05/20 07:34:48;;;;;;;7.20;4.68;;;11.90;87.10;;;;;;5033932;28;20041;-76
2021/05/20 07:37:14;;;;;;;7.35;4.93;;;11.80;87.20;;;;;;5033947;28;20080;-76
2021/05/20 07:39:40;;;;;;;7.38;5.93;;;11.90;87.20;;;;;;5033624;28;20126;-76
2021/05/20 07:42:06;;;;;;;11.07;6.20;;;11.80;87.20;;;;;;5034025;28;20025;-76
2021/05/20 07:44:33;;;;;;;6.70;3.67;;;11.80;87.40;;;;;;5033980;28;20076;-76
2021/05/20 07:46:59;;;;;;;9.15;5.45;;;11.90;87.50;;;;;;5033296;28;20021;-76
2021/05/20 07:49:25;;;;;;;9.27;5.28;;;12.10;87.10;;;;;;5033237;28;20450;-75
2021/05/20 07:51:51;;;;;;;9.18;5.47;;;12.20;86.80;;;;;;5021008;28;20029;-76
2021/05/20 07:54:17;;;;;;;7.38;4.85;;;12.30;86.70;;;;;;5033208;28;20425;-74
2021/05/20 07:56:44;;;;;;;8.20;4.80;;;12.40;86.70;;;;;;5020486;28;20088;-75
2021/05/20 07:59:27;;;;;;;7.15;4.85;;;12.50;86.60;;;;;;5058692;23;20052;-74
2021/05/20 08:02:03;;;;;;;7.38;5.00;;;12.60;86.30;;;;;;5052891;28;20025;-75
2021/05/20 08:04:30;;;;;;;8.25;5.10;;;12.70;86.40;;;;;;5024565;28;20092;-75
2021/05/20 08:07:28;;;;;;;8.75;5.93;;;12.70;86.20;;;;;;5033593;28;20025;-75
2021/05/20 08:09:48;;;;;;;8.57;4.40;;;12.80;86.10;;;;;;5107635;22;20053;-73
2021/05/20 08:12:14;;;;;;;8.73;7.25;;;12.80;86.90;;;;;;5032041;28;20036;-74
2021/05/20 08:14:39;;;;;;;9.27;5.30;;;12.90;86.30;;;;;;5031799;28;20104;-74
2021/05/20 08:17:07;;;;;;;7.65;5.18;;;12.90;86.20;;;;;;5032117;28;20059;-75
2021/05/20 08:19:32;;;;;;;9.00;5.22;;;12.90;86.30;;;;;;5033306;28;20555;-75
2021/05/20 08:21:58;;;;;;;7.88;4.80;;;13.00;86.10;;;;;;5033388;28;20053;-75
2021/05/20 08:24:24;;;;;;;8.30;5.57;;;13.10;86.00;;;;;;5033286;28;20041;-74
2021/05/20 08:26:49;;;;;;;8.68;5.57;;;13.10;86.00;;;;;;5032941;28;20458;-76
2021/05/20 08:29:15;;;;;;;8.60;4.90;;;13.10;85.80;;;;;;5033360;28;20469;-76
2021/05/20 08:31:40;;;;;;;8.15;5.18;;;13.10;85.80;;;;;;5032729;28;20021;-76
2021/05/20 08:34:06;;;;;;;6.85;4.50;;;13.30;85.90;;;;;;5033027;28;20025;-75
2021/05/20 08:36:32;;;;;;;6.35;3.95;;;13.40;85.60;;;;;;5033309;28;20022;-75
2021/05/20 08:38:58;;;;;;;6.03;4.40;;;13.60;85.30;;;;;;5033430;28;20397;-75
2021/05/20 08:41:24;;;;;;;9.55;4.53;;;13.70;85.10;;;;;;5031644;28;20036;-76
2021/05/20 08:43:50;;;;;;;6.50;4.25;;;13.70;85.00;;;;;;5032968;28;20025;-76
2021/05/20 08:46:25;;;;;;;5.85;4.40;;;13.70;85.20;;;;;;5032658;28;20033;-75
2021/05/20 08:48:51;;;;;;;7.13;4.47;;;13.60;85.20;;;;;;5015506;28;20017;-75
2021/05/20 08:51:19;;;;;;;6.25;4.60;;;13.60;85.40;;;;;;5033173;28;20101;-75
2021/05/20 08:53:44;;;;;;;5.45;3.80;;;13.60;85.50;;;;;;5032987;28;20470;-74
2021/05/20 08:56:14;;;;;;;9.45;5.57;;;13.60;85.40;;;;;;5033242;28;20033;-75
2021/05/20 08:58:39;;;;;;;6.63;4.80;;;13.60;85.40;;;;;;5032847;28;20029;-75
2021/05/20 09:01:05;;;;;;;6.05;4.05;;;13.60;85.40;;;;;;5014772;28;20022;-76
2021/05/20 09:03:31;;;;;;;6.47;4.45;;;13.60;85.20;;;;;;5032937;28;20018;-76
2021/05/20 09:06:00;;;;;;;6.80;4.20;;;13.60;85.10;;;;;;5031649;28;20056;-75
2021/05/20 09:08:32;;;;;;;5.50;3.90;;;13.60;85.20;;;;;;5032560;28;20477;-75
2021/05/20 09:10:58;;;;;;;6.82;4.03;;;13.60;85.10;;;;;;5032896;28;20034;-75
2021/05/20 09:13:23;;;;;;;7.38;4.05;;;13.70;85.00;;;;;;5032325;28;20119;-76
2021/05/20 09:15:51;;;;;;;5.25;3.60;;;13.60;85.10;;;;;;5032665;28;20498;-76
2021/05/20 09:18:20;;;;;;;6.28;3.72;;;13.80;85.00;;;;;;5032618;28;20021;-76
2021/05/20 09:20:51;;;;;;;5.72;3.90;;;13.90;84.60;;;;;;5032713;28;20029;-75
2021/05/20 09:23:31;;;;;;;6.07;4.50;;;14.00;84.80;;;;;;5032832;28;20134;-75
2021/05/20 09:26:05;;;;;;;5.07;3.35;;;14.10;84.70;;;;;;5032841;28;20044;-76
2021/05/20 09:28:41;;;;;;;5.57;3.72;;;14.30;84.30;;;;;;5032352;28;20108;-75
2021/05/20 09:31:07;;;;;;;5.65;3.72;;;14.30;84.10;;;;;;5014779;28;20163;-74
2021/05/20 09:33:32;;;;;;;5.68;4.00;;;14.30;84.30;;;;;;5032584;28;20096;-76
2021/05/20 09:35:58;;;;;;;4.60;3.22;;;14.40;84.40;;;;;;5032567;28;20032;-76
2021/05/20 09:38:25;;;;;;;7.25;4.55;;;14.50;84.00;;;;;;5034107;28;20108;-75
2021/05/20 09:40:57;;;;;;;5.15;3.30;;;14.60;84.00;;;;;;5036225;28;20109;-75
2021/05/20 09:43:34;;;;;;;4.80;3.08;;;14.50;84.20;;;;;;5035678;28;20393;-75
2021/05/20 09:46:03;;;;;;;5.07;3.60;;;14.50;84.10;;;;;;5036086;28;20036;-74
2021/05/20 09:48:36;;;;;;;5.13;3.47;;;14.60;84.00;;;;;;5036067;28;20374;-74
2021/05/20 09:51:02;;;;;;;5.53;4.03;;;14.60;83.80;;;;;;5035905;28;20036;-75
2021/05/20 09:53:29;;;;;;;6.45;4.95;;;14.60;84.00;;;;;;5035975;28;20029;-74
2021/05/20 09:55:56;;;;;;;5.85;4.40;;;14.70;83.80;;;;;;5018129;28;20470;-75
2021/05/20 09:58:30;;;;;;;5.43;3.63;;;14.70;83.80;;;;;;5035157;28;20025;-77
2021/05/20 10:00:58;;;;;;;5.43;3.40;;;14.80;83.70;;;;;;5034148;28;20075;-76
2021/05/20 10:03:24;;;;;;;5.47;4.32;;;14.70;83.70;;;;;;5035469;28;20473;-75
2021/05/20 10:05:52;;;;;;;4.75;3.35;;;14.80;83.60;;;;;;5024141;28;20034;-74
2021/05/20 10:08:21;;;;;;;7.25;4.90;;;14.90;83.70;;;;;;5015801;28;20470;-75
2021/05/20 10:10:51;;;;;;;5.00;3.72;;;14.90;83.40;;;;;;5015615;28;20052;-73
2021/05/20 10:13:22;;;;;;;6.05;3.53;;;14.90;83.60;;;;;;5015289;28;20061;-76
2021/05/20 10:15:48;;;;;;;5.05;3.45;;;14.80;83.70;;;;;;5015678;28;20053;-74
2021/05/20 10:18:19;;;;;;;4.95;3.25;;;14.80;84.00;;;;;;5015607;28;20481;-74
2021/05/20 10:20:47;;;;;;;4.15;3.15;;;14.70;84.00;;;;;;5015748;28;20026;-74
2021/05/20 10:23:16;;;;;;;4.78;3.33;;;14.80;84.10;;;;;;5015491;28;20386;-75
2021/05/20 10:25:43;;;;;;;5.33;3.10;;;14.80;83.90;;;;;;5015715;28;20057;-75
2021/05/20 10:28:10;;;;;;;4.28;3.33;;;14.90;83.90;;;;;;5014988;28;20029;-74
2021/05/20 10:30:38;;;;;;;4.57;2.88;;;15.00;83.90;;;;;;4997627;28;20034;-76
2021/05/20 10:33:04;;;;;;;4.78;2.55;;;15.20;83.70;;;;;;5015405;28;20036;-76
2021/05/20 10:35:39;;;;;;;4.47;3.20;;;15.30;84.00;;;;;;5018820;28;20022;-76
2021/05/20 10:38:05;;;;;;;4.38;3.15;;;15.40;83.30;;;;;;5015478;28;20512;-75
2021/05/20 10:40:35;;;;;;;4.70;3.55;;;15.60;83.10;;;;;;5014763;28;20094;-75
2021/05/20 10:43:10;;;;;;;3.78;3.08;;;15.80;82.80;;;;;;5015272;28;20026;-73
2021/05/20 10:45:55;;;;;;;4.03;2.70;;;15.80;82.60;;;;;;5015323;28;20613;-75
2021/05/20 10:48:22;;;;;;;3.67;2.92;;;15.70;82.90;;;;;;5014626;28;20022;-75
2021/05/20 10:50:50;;;;;;;4.53;3.20;;;15.70;83.10;;;;;;5014960;28;20036;-76
2021/05/20 10:53:38;;;;;;;3.72;2.55;;;15.90;83.00;;;;;;5018757;28;20350;-76
2021/05/20 10:56:08;;;;;;;5.30;3.20;;;16.10;82.90;;;;;;5029593;28;20591;-78
2021/05/20 10:58:36;;;;;;;4.57;3.30;;;16.20;82.80;;;;;;5036084;28;20386;-76
2021/05/20 11:01:05;;;;;;;4.90;3.50;;;16.20;82.80;;;;;;5034566;28;20049;-78
2021/05/20 11:03:46;;;;;;;;;;;16.30;82.60;;;;;;5034926;28;20105;-77
2021/05/20 11:06:12;;;;;;;4.43;3.00;;;16.40;83.00;;;;;;5034492;28;19912;-78
2021/05/20 11:08:38;;;;;;;3.65;2.97;;;16.50;82.90;;;;;;5034337;28;20022;-79
2021/05/20 11:11:03;;;;;;;5.32;3.60;;;16.60;82.60;;;;;;5036885;28;20476;-73
2021/05/20 11:13:40;;;;;;;4.45;3.00;;;16.70;82.30;;;;;;5054221;28;20350;-78
2021/05/20 11:16:18;;;;;;;4.85;2.97;;;16.80;82.40;;;;;;5044667;28;20127;-78
2021/05/20 11:18:48;;;;;;;5.38;3.85;;;16.90;82.40;;;;;;5026362;28;20036;-80
2021/05/20 11:21:13;;;;;;;;;;;16.90;82.50;;;;;;5016813;28;20508;-76
2021/05/20 11:23:39;;;;;;;6.90;3.50;;;17.10;82.50;;;;;;5032762;28;19948;-76
2021/05/20 11:26:10;;;;;;;4.70;3.65;;;17.10;82.20;;;;;;5033612;28;20021;-75
2021/05/20 11:28:45;;;;;;;5.20;3.70;;;17.10;81.90;;;;;;5033289;28;20017;-76
2021/05/20 11:31:11;;;;;;;4.22;3.15;;;17.80;81.30;;;;;;5026860;28;20492;-74
2021/05/20 11:33:50;;;;;;;5.47;4.38;;;18.50;79.80;;;;;;5015933;28;20021;-75
2021/05/20 11:36:15;;;;;;;4.82;4.15;;;19.30;78.20;;;;;;5031846;28;20095;-74
2021/05/20 11:38:55;;;;;;;5.60;4.50;;;19.90;77.20;;;;;;5029578;28;20064;-77
2021/05/20 11:41:21;;;;;;;5.50;4.22;;;20.50;76.10;;;;;;5033902;28;20049;-76
2021/05/20 11:43:59;;;;;;;7.10;4.97;;;20.70;75.50;;;;;;5018124;28;20014;-77
2021/05/20 11:46:25;;;;;;;7.50;5.18;;;20.60;75.70;;;;;;5013876;28;20089;-75
2021/05/20 11:49:00;;;;;;;7.47;5.72;;;20.70;75.60;;;;;;5025895;28;20374;-74
2021/05/20 11:51:48;;;;;;;5.82;4.22;;;20.90;75.50;;;;;;5053394;28;20025;-77
2021/05/20 11:54:15;;;;;;;5.50;3.85;;;21.20;75.70;;;;;;5033618;28;20405;-78
2021/05/20 11:56:49;;;;;;;5.05;3.70;;;21.60;75.20;;;;;;5033600;28;20099;-76
2021/05/20 11:59:15;;;;;;;5.25;3.78;;;21.70;74.60;;;;;;5031275;28;20155;-77
2021/05/20 12:01:43;;;;;;;4.90;3.67;;;21.60;74.60;;;;;;5032637;28;20024;-76
2021/05/20 12:04:09;;;;;;;7.10;4.85;;;21.40;74.90;;;;;;5013354;28;20040;-79
2021/05/20 12:06:36;;;;;;;5.50;3.72;;;21.20;75.30;;;;;;5033116;28;20024;-75
2021/05/20 12:09:06;;;;;;;5.95;4.40;;;20.90;75.90;;;;;;5030779;28;20437;-76
2021/05/20 12:11:32;;;;;;;6.38;4.45;;;20.80;76.00;;;;;;5033075;28;20022;-77
2021/05/20 12:13:57;;;;;;;6.68;4.68;;;20.50;76.40;;;;;;5033208;28;20025;-73
2021/05/20 12:16:35;;;;;;;4.85;4.13;;;20.30;76.90;;;;;;5031240;28;20018;-75
2021/05/20 12:19:00;;;;;;;6.57;4.80;;;20.30;76.80;;;;;;5030955;28;20039;-76
2021/05/20 12:21:26;;;;;;;6.20;4.43;;;20.10;76.80;;;;;;5031862;28;20052;-75
2021/05/20 12:23:56;;;;;;;6.82;5.00;;;20.00;76.70;;;;;;5032754;28;20025;-74
2021/05/20 12:26:27;;;;;;;5.28;4.03;;;19.70;77.00;;;;;;5030745;28;20084;-74
2021/05/20 12:28:53;;;;;;;6.32;4.78;;;19.60;77.40;;;;;;5033190;28;20026;-75
2021/05/20 12:31:20;;;;;;;6.78;4.65;;;19.30;77.40;;;;;;5032986;28;20024;-75
2021/05/20 12:33:47;;;;;;;5.57;4.20;;;19.10;77.80;;;;;;5033013;28;20029;-74
2021/05/20 12:36:32;;;;;;;6.43;4.85;;;18.90;78.10;;;;;;5033015;28;20040;-76
2021/05/20 12:38:57;;;;;;;6.63;4.82;;;18.70;78.00;;;;;;5033120;28;20034;-74
2021/05/20 12:41:37;;;;;;;7.03;4.47;;;18.40;78.30;;;;;;5032838;28;20123;-75
2021/05/20 12:44:12;;;;;;;;;;;18.10;78.70;;;;;;5033238;28;20036;-73
2021/05/20 12:46:38;;;;;;;5.55;4.00;;;17.70;79.40;;;;;;5032929;28;20292;-74
2021/05/20 12:49:03;;;;;;;4.97;3.92;;;17.80;79.70;;;;;;5032738;28;20032;-75
2021/05/20 12:51:29;;;;;;;6.10;4.55;;;18.10;79.00;;;;;;5032530;28;20548;-76
2021/05/20 12:53:57;;;;;;;6.03;4.00;;;18.40;78.20;;;;;;5005209;28;20026;-76